Home > Products > Valid Products > TAF

000
FTUS43 KICT 021400 AAA
TAFHUT
TAF AMD
KHUT 021404Z 0214/0312 05003KT P6SM SCT005 BKN250
      TEMPO 0214/0216 BKN005
     FM021600 09008KT P6SM FEW025
     FM022100 14008KT P6SM VCTS SCT040CB BKN070
     FM030900 14008KT P6SM VCTS BKN025 OVC050CB=



000
FTUS43 KICT 021200 AAA
TAFICT
TAF AMD
KICT 021254Z 0213/0312 05007KT P6SM SCT005 BKN015 OVC250
      TEMPO 0213/0215 BKN005
     FM022100 15010KT P6SM VCTS SCT040CB BKN070
     FM030900 14008KT P6SM VCTS BKN025 OVC050CB=



000
FTUS43 KICT 021100
TAFICT
TAF
KICT 021138Z 0212/0312 07011KT P6SM SCT040 BKN250
     FM022100 15010KT P6SM VCTS SCT040CB BKN070
     FM030900 14008KT P6SM VCTS BKN025 OVC050CB=



000
FTUS43 KICT 021100
TAFCNU
TAF
KCNU 021138Z 0212/0312 VRB05KT P6SM SCT015
      TEMPO 0212/0215 BKN009
     FM021600 17008KT P6SM SCT035
     FM022200 13008KT P6SM VCTS SCT035CB BKN060
     FM030800 13010KT P6SM VCTS BKN025 OVC050CB=



000
FTUS43 KICT 021100
TAFHUT
TAF
KHUT 021138Z 0212/0312 05003KT P6SM SCT005 BKN250
      TEMPO 0212/0214 BKN005
     FM021600 09008KT P6SM FEW025
     FM022100 14008KT P6SM VCTS SCT040CB BKN070
     FM030900 14008KT P6SM VCTS BKN025 OVC050CB=



000
FTUS43 KICT 021100
TAFSLN
TAF
KSLN 021138Z 0212/0312 05005KT P6SM BKN250
     FM021600 10007KT P6SM SCT050
     FM030400 14009KT P6SM VCTS BKN070CB
     FM031000 15010KT P6SM VCTS BKN025CB=



000
FTUS43 KICT 021100
TAFRSL
TAF
KRSL 021138Z 0212/0312 VRB05KT P6SM SCT015 SCT100
     FM021500 05005KT P6SM SCT050
     FM022100 13010KT P6SM BKN050
     FM030400 14008KT P6SM VCTS BKN070CB
     FM031000 15010KT P6SM VCTS BKN025CB=



000
FTUS43 KICT 021000 AAA
TAFRSL
TAF AMD
KRSL 021041Z 0211/0306 05005KT P6SM SCT005
      TEMPO 0211/0213 BKN005
     FM021600 11008KT P6SM SCT050
     FM022100 13011KT P6SM SCT050
     FM030300 14011KT P6SM VCTS BKN070CB=



000
FTUS43 KICT 021000 AAA
TAFCNU
TAF AMD
KCNU 021038Z 0211/0306 VRB05KT P6SM FEW007 OVC250
      TEMPO 0211/0213 BKN007
     FM021600 17008KT P6SM SCT040
     FM022100 13008KT P6SM VCTS SCT035CB BKN060=



000
FTUS43 KICT 021000 AAA
TAFHUT
TAF AMD
KHUT 021036Z 0211/0306 05003KT P6SM SCT005 OVC250
      TEMPO 0211/0213 BKN005
     FM021500 09008KT P6SM FEW020
     FM022000 12008KT P6SM VCTS SCT040CB BKN070
     FM030300 14010KT P6SM VCTS BKN070CB=



000
FTUS43 KICT 020500
TAFHUT
TAF
KHUT 020520Z 0206/0306 06007KT P6SM SCT050
     FM020900 VRB03KT 3SM BR SCT005
     FM021500 09008KT P6SM FEW020
     FM022000 12008KT P6SM VCTS SCT040CB BKN070
     FM030300 14010KT P6SM VCTS BKN070CB=



000
FTUS43 KICT 020500
TAFICT
TAF
KICT 020520Z 0206/0306 07011KT P6SM VCTS SCT030CB BKN050
     FM021100 11008KT P6SM SCT150
     FM022000 15010KT P6SM VCTS SCT040CB BKN070
     FM030300 15011KT P6SM VCTS BKN070CB=



000
FTUS43 KICT 020500
TAFSLN
TAF
KSLN 020520Z 0206/0306 VRB04KT P6SM SCT050
     FM020900 VRB04KT P6SM SCT150
      TEMPO 0210/0213 4SM BR SCT005
     FM021600 10007KT P6SM SCT050
     FM030300 14009KT P6SM VCTS BKN070CB=



000
FTUS43 KICT 020500
TAFCNU
TAF
KCNU 020520Z 0206/0306 05010KT P6SM VCTS SCT010 OVC025CB
      TEMPO 0206/0210 3SM +TSRA BKN010 OVC025CB
     FM021100 14007KT P6SM FEW005
      TEMPO 0211/0213 3SM BR BKN005
     FM021600 17008KT P6SM SCT040
     FM022100 13008KT P6SM VCTS SCT035CB BKN060=



000
FTUS43 KICT 020500
TAFRSL
TAF
KRSL 020520Z 0206/0306 07005KT P6SM SCT150
      TEMPO 0209/0213 4SM BR SCT005
     FM021600 11008KT P6SM SCT050
     FM022100 13011KT P6SM SCT050
     FM030300 14011KT P6SM VCTS BKN070CB=



000
FTUS43 KICT 020300 AAA
TAFICT
TAF AMD
KICT 020326Z 0203/0224 04011KT P6SM VCTS SCT030CB BKN050
     FM020800 VRB03KT P6SM VCTS BKN070CB
     FM021100 08006KT 5SM BR SCT150
     FM021400 12007KT P6SM SCT150=



000
FTUS43 KICT 020300 AAA
TAFICT
TAF AMD
KICT 020326Z 0203/0224 04011KT P6SM VCTS SCT030CB BKN050
     FM020800 VRB03KT P6SM VCTS BKN070CB
     FM021100 08006KT 5SM BR SCT150
     FM021400 12007KT P6SM SCT150=



000
FTUS43 KICT 020300 AAA
TAFCNU
TAF AMD
KCNU 020324Z 0203/0224 06005KT P6SM VCTS SCT010 OVC030CB
      TEMPO 0203/0207 3SM +TSRA BKN010 OVC025CB
     FM020700 06005KT P6SM VCTS SCT015 BKN035CB
      TEMPO 0210/0213 4SM BR
     FM021600 15008KT P6SM SCT040=



000
FTUS43 KICT 012300
TAFICT
TAF
KICT 012320Z 0200/0224 04008KT P6SM VCTS BKN040CB
      TEMPO 0200/0202 5SM TSRA
     FM020200 04007KT P6SM SCT050 BKN150
     FM020800 VRB03KT P6SM VCTS BKN070CB
     FM021100 08006KT 5SM BR SCT150
     FM021400 12007KT P6SM SCT150=



000
FTUS43 KICT 012300
TAFRSL
TAF
KRSL 012320Z 0200/0224 08006KT P6SM SCT035
     FM020600 VRB04KT P6SM SCT150
      TEMPO 0210/0213 4SM BR SCT015
     FM021600 12007KT P6SM SCT050=



000
FTUS43 KICT 012300
TAFSLN
TAF
KSLN 012320Z 0200/0224 05005KT P6SM BKN030
     FM020300 06005KT P6SM SCT035
     FM020900 VRB04KT P6SM SCT150
      TEMPO 0210/0213 4SM BR BKN005
     FM021600 08006KT P6SM SCT050=



000
FTUS43 KICT 012300
TAFHUT
TAF
KHUT 012320Z 0200/0224 04008KT P6SM BKN050
     FM020900 VRB03KT 3SM BR SCT005
      TEMPO 0210/0213 BKN005
     FM021500 09008KT P6SM FEW020
     FM022000 12008KT P6SM SCT040=



000
FTUS43 KICT 012300
TAFCNU
TAF
KCNU 012320Z 0200/0224 11005KT P6SM VCTS BKN050CB
      TEMPO 0200/0204 VRB25G35KT 3SM TSRA BKN035CB
     FM020400 06005KT P6SM VCTS BKN040CB
     FM020700 06005KT P6SM SCT100
      TEMPO 0210/0213 4SM BR
     FM021600 15008KT P6SM SCT040=



000
FTUS43 KICT 012100 AAA
TAFSLN
TAF AMD
KSLN 012129Z 0121/0218 VRB06KT P6SM OVC028
     FM020300 03007KT P6SM SCT030 SCT250
     FM020600 03006KT P6SM BKN120=



000
FTUS43 KICT 012100 AAA
TAFICT
TAF AMD
KICT 012103Z 0121/0218 07007KT P6SM BKN050
     FM020500 03005KT P6SM VCTS BKN035CB
     FM020900 03006KT P6SM BKN020=



000
FTUS43 KICT 011700
TAFRSL
TAF
KRSL 011738Z 0118/0218 03005KT P6SM BKN035
     FM020300 05007KT P6SM SCT035 BKN120
     FM020600 03006KT P6SM BKN120=



000
FTUS43 KICT 011700
TAFCNU
TAF
KCNU 011738Z 0118/0218 15008KT P6SM SCT030 BKN100
      TEMPO 0118/0121 BKN030
     FM012200 15012KT P6SM VCTS BKN050CB
      TEMPO 0122/0202 VRB25G35KT -TSRA BKN035CB
     FM020300 03008KT 5SM -TSRA BR BKN035CB
     FM020600 VRB03KT P6SM VCTS BKN080CB=



000
FTUS43 KICT 011700
TAFSLN
TAF
KSLN 011738Z 0118/0218 29005KT P6SM SCT025 BKN035
      TEMPO 0118/0121 BKN025
     FM012100 35007KT P6SM SCT035 BKN120
     FM020300 03007KT P6SM SCT250
     FM020600 03006KT P6SM BKN120=



000
FTUS43 KICT 011700
TAFICT
TAF
KICT 011738Z 0118/0218 15012KT P6SM SCT025 BKN040 BKN150
      TEMPO 0118/0121 BKN025
     FM012100 07007KT P6SM BKN050
     FM020500 03005KT P6SM VCTS BKN035CB
     FM020900 03006KT P6SM BKN020=



000
FTUS43 KICT 011700
TAFHUT
TAF
KHUT 011738Z 0118/0218 12006KT P6SM SCT025 BKN050
      TEMPO 0118/0121 BKN025
     FM012100 01008KT P6SM BKN035
     FM020200 08007KT P6SM BKN050
     FM020900 VRB03KT P6SM BKN020=



000
FTUS43 KICT 011500 AAA
TAFCNU
TAF AMD
KCNU 011503Z 0115/0212 10012KT P6SM SCT025 OVC050
     FM011600 15008KT P6SM SCT050 BKN150
     FM012200 15012KT P6SM VCTS BKN050CB=



000
FTUS43 KICT 011100
TAFICT
TAF
KICT 011128Z 0112/0212 10010KT P6SM SCT040 BKN150
     FM012000 07007KT P6SM BKN050
     FM021000 09005KT 5SM BR VCTS BKN025CB=



000
FTUS43 KICT 011100
TAFCNU
TAF
KCNU 011128Z 0112/0212 10012KT P6SM TSRA SCT025 OVC050CB
      TEMPO 0112/0116 3SM +TSRA BR SCT015 OVC035CB
     FM011600 15008KT P6SM SCT050 BKN150
     FM012200 15012KT P6SM VCTS BKN050CB=



000
FTUS43 KICT 011100
TAFHUT
TAF
KHUT 011128Z 0112/0212 12007KT P6SM BKN050
     FM011500 VRB05KT P6SM SCT050
     FM012000 08007KT P6SM SCT040=



000
FTUS43 KICT 011100
TAFRSL
TAF
KRSL 011128Z 0112/0212 VRB05KT P6SM SCT150
     FM011500 33005KT P6SM SCT250
     FM020300 05007KT P6SM SCT250=



000
FTUS43 KICT 011100
TAFSLN
TAF
KSLN 011128Z 0112/0212 20005KT P6SM BKN250
     FM011500 29005KT P6SM SCT250
     FM012100 35007KT P6SM SCT250
     FM020000 03007KT P6SM SCT250=



000
FTUS43 KICT 011000 AAB
TAFHUT
TAF AMD
KHUT 011011Z 0110/0206 12010KT P6SM VCTS BKN040CB
      TEMPO 0110/0111 VRB15G25KT 5SM TSRA SCT007 OVC035CB
     FM011100 VRB06KT P6SM SCT050 OVC120
     FM011700 35010KT P6SM SCT120
     FM020000 02004KT P6SM SCT120=



000
FTUS43 KICT 010800 AAB
TAFSLN
TAF AMD
KSLN 010842Z 0109/0206 18007KT P6SM SCT100 OVC250
     FM011000 VRB05KT P6SM SCT040 BKN100
     FM011300 35011KT P6SM BKN120
     FM020000 02008KT P6SM SCT150=



000
FTUS43 KICT 010800 AAA
TAFICT
TAF AMD
KICT 010841Z 0109/0206 08012KT P6SM OVC040
     FM011000 11010KT P6SM VCTS SCT040CB OVC150
     FM011300 15007KT P6SM SCT080 BKN250
     FM011500 21011KT P6SM SCT120
     FM012100 34009KT P6SM SCT060 BKN150=



000
FTUS43 KICT 010700 AAA
TAFSLN
TAF AMD
KSLN 010700Z 0107/0206 15015G22KT P6SM VCTS SCT030CB OVC050
      TEMPO 0107/0110 VRB15G30KT
     FM011000 VRB06KT P6SM SCT040 BKN080
     FM011300 35011KT P6SM BKN120
     FM020000 02008KT P6SM SCT150=



000
FTUS43 KICT 010600 AAA
TAFRSL
TAF AMD
KRSL 010659Z 0107/0206 VRB06KT P6SM VCTS SCT030CB BKN060
     FM010900 05009KT P6SM SCT040 BKN080
     FM011200 36012KT P6SM BKN120
     FM020000 05007KT P6SM SCT150=



000
FTUS43 KICT 010600 AAA
TAFCNU
TAF AMD
KCNU 010654Z 0107/0206 35014G23KT P6SM VCTS OVC040CB
      TEMPO 0107/0110 VRB25G40KT 1/2SM +TSRA OVC020CB
     FM011000 01008KT P6SM VCTS SCT030CB OVC060
      TEMPO 0110/0114 3SM TSRA OVC025CB
     FM011500 20018G26KT P6SM SCT050 BKN150
     FM012200 20014G21KT P6SM VCTS SCT050CB BKN100=



000
FTUS43 KICT 010500 AAA
TAFHUT
TAF AMD
KHUT 010558Z 0106/0206 01013KT P6SM VCTS SCT040CB BKN060
      TEMPO 0106/0109 VRB25G40KT 1SM +TSRA OVC030CB
     FM011000 VRB06KT P6SM SCT050 OVC120
     FM011700 35010KT P6SM SCT120
     FM020000 02004KT P6SM SCT120=



000
FTUS43 KICT 010500 AAA
TAFICT
TAF AMD
KICT 010557Z 0106/0206 VRB06KT P6SM SCT050 BKN100
      TEMPO 0106/0109 36025G35KT 2SM +TSRA OVC040CB
     FM010900 15010KT P6SM SCT050 OVC120
     FM011500 21011KT P6SM SCT120
     FM012100 34009KT P6SM SCT060 BKN150=



000
FTUS43 KICT 010500
TAFRSL
TAF
KRSL 010520Z 0106/0206 VRB06KT P6SM VCTS SCT030CB BKN060
      TEMPO 0106/0109 VRB15G25KT 2SM +TSRA OVC030CB
     FM010900 05009KT P6SM SCT040 BKN080
     FM011200 36012KT P6SM BKN120
     FM020000 05007KT P6SM SCT150=



000
FTUS43 KICT 010500
TAFCNU
TAF
KCNU 010520Z 0106/0206 17014G23KT P6SM VCTS SCT040CB OVC070
      TEMPO 0106/0110 VRB20G35KT 1SM +TSRA OVC030CB
     FM011000 01008KT P6SM VCTS SCT030CB OVC060
      TEMPO 0110/0114 3SM TSRA OVC025CB
     FM011500 20018G26KT P6SM SCT050 BKN150
     FM012200 20014G21KT P6SM VCTS SCT050CB BKN100=



000
FTUS43 KICT 010500
TAFSLN
TAF
KSLN 010520Z 0106/0206 VRB06KT P6SM VCTS SCT030CB OVC050
      TEMPO 0106/0110 VRB15G30KT 1SM +TSRA OVC020CB
     FM011000 VRB06KT P6SM SCT040 BKN080
     FM011300 35011KT P6SM BKN120
     FM020000 02008KT P6SM SCT150=



000
FTUS43 KICT 010500
TAFICT
TAF
KICT 010520Z 0106/0206 14008KT P6SM SCT050 BKN100
     FM010800 17010KT P6SM SCT050 OVC120
     FM011500 21011KT P6SM SCT120
     FM012100 34009KT P6SM SCT060 BKN150=



000
FTUS43 KICT 010500
TAFHUT
TAF
KHUT 010520Z 0106/0206 21010KT P6SM VCTS SCT050CB BKN070
      TEMPO 0107/0110 VRB25G35KT 1SM +TSRA OVC030CB
     FM011000 VRB06KT P6SM SCT050 OVC120
     FM011700 35010KT P6SM SCT120
     FM020000 02004KT P6SM SCT120=



000
FTUS43 KICT 010300 AAA
TAFICT
TAF AMD
KICT 010329Z 0103/0124 18020G27KT P6SM VCTS SCT060CB BKN120
     FM010400 30011KT P6SM VCTS SCT060CB BKN100
     FM010900 17010KT P6SM SCT050 OVC120
     FM011700 35013KT P6SM SCT120=



000
FTUS43 KICT 010300 AAA
TAFCNU
TAF AMD
KCNU 010317Z 0103/0124 17018G25KT P6SM FEW050 SCT150
     FM010500 17013KT P6SM VCTS SCT040CB OVC070
      TEMPO 0105/0109 VRB20G35KT 2SM +TSRA OVC035CB
     FM011500 20018G26KT P6SM SCT050 BKN150
     FM012200 20014G21KT P6SM VCTS SCT050CB BKN100=



000
FTUS43 KICT 010300 AAC
TAFRSL
TAF AMD
KRSL 010315Z 0103/0124 02012KT P6SM VCTS SCT030CB BKN060
      TEMPO 0103/0107 2SM +TSRA OVC030CB
     FM010800 05009KT P6SM SCT040 BKN080
     FM011200 36012KT P6SM BKN120=



000
FTUS43 KICT 010300 AAB
TAFHUT
TAF AMD
KHUT 010303Z 0103/0124 21010G20KT P6SM VCTS SCT050CB BKN070
      TEMPO 0103/0107 VRB25G35KT 1SM +TSRA OVC040CB
     FM010700 18010KT P6SM SCT050 OVC120
     FM011500 35013KT P6SM SCT120=



000
FTUS43 KICT 010100 AAB
TAFRSL
TAF AMD
KRSL 010148Z 0102/0124 02012KT P6SM VCTS SCT040CB BKN080
     FM010800 05009KT P6SM SCT040 BKN080
     FM011200 36012KT P6SM BKN120=



000
FTUS43 KICT 010100 AAA
TAFSLN
TAF AMD
KSLN 010145Z 0102/0124 19021G30KT P6SM VCTS SCT070CB BKN100
      TEMPO 0102/0106 VRB25G40KT 1SM +TSRA OVC035CB
     FM010600 02013KT P6SM VCTS SCT040CB BKN080
     FM010800 05009KT P6SM SCT040 BKN080
     FM011300 36012KT P6SM BKN120=



000
FTUS43 KICT 010100 AAA
TAFHUT
TAF AMD
KHUT 010143Z 0102/0124 17020G30KT P6SM VCTS SCT070CB BKN100
      TEMPO 0103/0106 VRB25G40KT 1SM +TSRA OVC040CB
     FM010700 18010KT P6SM SCT050 OVC120
     FM011500 35013KT P6SM SCT120=



000
FTUS43 KICT 010000 AAA
TAFRSL
TAF AMD
KRSL 010007Z 0100/0124 21015G23KT P6SM VCTS SCT070CB BKN150
     FM010200 34014G22KT P6SM VCTS SCT040CB BKN080
     FM010600 05009KT P6SM SCT040 BKN080
     FM011200 36012KT P6SM BKN120=



000
FTUS43 KICT 312300
TAFCNU
TAF
KCNU 312320Z 0100/0124 17018G25KT P6SM FEW050 SCT150
     FM010800 17013KT P6SM BKN150
     FM011500 20018G26KT P6SM SCT050 BKN150
     FM012200 20014G21KT P6SM VCTS SCT050CB BKN100=



000
FTUS43 KICT 312300
TAFRSL
TAF
KRSL 312320Z 0100/0124 18021G30KT P6SM VCTS SCT070CB BKN120
      TEMPO 0100/0102 VRB30G47KT 2SM +TSRA OVC040CB
     FM010200 33014KT P6SM VCTS SCT040CB BKN080
     FM010600 05009KT P6SM SCT040 BKN080
     FM011200 36012KT P6SM BKN120=



000
FTUS43 KICT 312300
TAFICT
TAF
KICT 312320Z 0100/0124 18025G35KT P6SM FEW060 SCT150
     FM010200 17020G28KT P6SM VCTS BKN050CB OVC120
     FM010700 17010KT P6SM SCT050 OVC120
     FM011700 35013KT P6SM SCT120=



000
FTUS43 KICT 312300
TAFHUT
TAF
KHUT 312320Z 0100/0124 18023G33KT P6SM FEW050 SCT120
     FM010100 17018G25KT P6SM VCTS BKN050CB OVC120
     FM010700 18010KT P6SM SCT050 OVC120
     FM011500 35013KT P6SM SCT120=



000
FTUS43 KICT 312300
TAFSLN
TAF
KSLN 312320Z 0100/0124 18021G33KT P6SM VCTS SCT070CB BKN100
      TEMPO 0100/0104 VRB30G47KT 1SM +TSRA OVC040CB
     FM010500 02013KT P6SM VCTS SCT040CB BKN080
     FM010800 05009KT P6SM SCT040 BKN080
     FM011300 36012KT P6SM BKN120=



000
FTUS43 KICT 312100 AAA
TAFSLN
TAF AMD
KSLN 312125Z 3121/0118 18021G33KT P6SM VCTS SCT070CB BKN100
      TEMPO 3123/0103 VRB30G43KT 2SM +TSRA OVC040CB
     FM010500 32013KT P6SM VCTS SCT040CB BKN080
     FM010800 05009KT 5SM BR SCT040 BKN080
     FM011600 36012KT P6SM BKN120=



000
FTUS43 KICT 312100 AAB
TAFRSL
TAF AMD
KRSL 312123Z 3121/0118 18021G30KT P6SM VCTS SCT070CB BKN120
      TEMPO 3122/0102 VRB25G43KT 2SM +TSRA OVC040CB
     FM010300 32013KT P6SM VCTS SCT040CB BKN080
     FM010600 05009KT 5SM BR SCT040 BKN080
     FM011400 36012KT P6SM BKN120=



000
FTUS43 KICT 312000 AAA
TAFRSL
TAF AMD
KRSL 312052Z 3121/0118 18026G35KT P6SM VCTS SCT050CB BKN120
     FM010300 32013KT P6SM VCTS SCT040CB BKN080
     FM010600 05009KT 5SM BR SCT040 BKN080
     FM011400 36012KT P6SM BKN120=



000
FTUS43 KICT 311700
TAFHUT
TAF
KHUT 311727Z 3118/0118 18021G30KT P6SM FEW050 SCT120
     FM010200 17016G24KT P6SM VCTS BKN050CB OVC120
     FM010700 19010KT P6SM SCT050 OVC120
     FM011500 25012KT P6SM BKN050 OVC120=



000
FTUS43 KICT 311700
TAFICT
TAF
KICT 311727Z 3118/0118 18022G31KT P6SM FEW050 SCT120
     FM010300 17016G24KT P6SM SCT070 BKN150
     FM011100 18010KT P6SM SCT050 BKN120
     FM011600 25012KT P6SM BKN050 OVC120=



000
FTUS43 KICT 311700
TAFSLN
TAF
KSLN 311727Z 3118/0118 18021G30KT P6SM FEW050 SCT120
     FM010100 18015G22KT P6SM VCTS SCT050CB BKN100
     FM010500 32013KT P6SM VCTS SCT040CB BKN080
     FM010800 05009KT 5SM BR SCT040 BKN080
     FM011600 36012KT P6SM BKN120=



000
FTUS43 KICT 311700
TAFCNU
TAF
KCNU 311727Z 3118/0118 19015G23KT P6SM FEW050 SCT120
     FM010100 17015G24KT P6SM SCT120 BKN200
     FM010600 17013KT P6SM SCT120
     FM011500 20015G23KT P6SM SCT050 BKN120=



000
FTUS43 KICT 311700
TAFRSL
TAF
KRSL 311727Z 3118/0118 18024G35KT P6SM FEW050 SCT120
     FM312300 18015G22KT P6SM VCTS SCT050CB BKN100
     FM010300 32013KT P6SM VCTS SCT040CB BKN080
     FM010600 05009KT 5SM BR SCT040 BKN080
     FM011400 36012KT P6SM BKN120=



000
FTUS43 KICT 311100
TAFHUT
TAF
KHUT 311134Z 3112/0112 15008KT P6SM SCT100
     FM311600 18024G33KT P6SM FEW080 SCT150
     FM010400 17016G24KT P6SM VCTS BKN050CB OVC100
     FM010800 19009KT P6SM FEW100=



000
FTUS43 KICT 311100
TAFICT
TAF
KICT 311134Z 3112/0112 18011KT P6SM SCT100
     FM311600 18024G33KT P6SM FEW080 SCT150
     FM010300 17016G24KT P6SM SCT050 BKN150=



000
FTUS43 KICT 311100
TAFCNU
TAF
KCNU 311134Z 3112/0112 16009KT P6SM SKC
     FM311400 19014KT P6SM SCT200
     FM311800 19017G25KT P6SM SCT150
     FM010100 17018G27KT P6SM BKN200
     FM010800 17013KT P6SM VCTS BKN050CB=



000
FTUS43 KICT 311100
TAFRSL
TAF
KRSL 311134Z 3112/0112 20007KT P6SM VCTS SCT080CB BKN120
     FM311500 19025G35KT P6SM FEW090 SCT250
     FM010000 18013KT P6SM VCTS SCT070CB BKN100
     FM010600 06009KT 5SM BR SCT020=



000
FTUS43 KICT 311100
TAFSLN
TAF
KSLN 311134Z 3112/0112 17009KT P6SM VCTS SCT080CB BKN120
     FM311600 18024G33KT P6SM SCT100 BKN250
     FM010200 17013KT P6SM VCTS SCT070CB BKN100
     FM011000 03009KT 5SM BR SCT020=



000
FTUS43 KICT 310500
TAFRSL
TAF
KRSL 310520Z 3106/0106 17011KT P6SM SCT200
     FM310900 18012KT P6SM VCTS SCT080CB BKN120
     FM311500 19025G34KT P6SM FEW090 SCT250
     FM010000 18013KT P6SM VCTS SCT070CB BKN100=



000
FTUS43 KICT 310500
TAFHUT
TAF
KHUT 310520Z 3106/0106 15008KT P6SM SCT200
     FM311000 17010KT P6SM VCTS SCT100CB BKN150
     FM311600 18024G32KT P6SM SCT150
     FM010100 17018G23KT P6SM BKN150=



000
FTUS43 KICT 310500
TAFICT
TAF
KICT 310520Z 3106/0106 16007KT P6SM SCT200
     FM311100 17009KT P6SM SCT100
     FM311600 18024G33KT P6SM SCT150
     FM010100 17019G24KT P6SM BKN150=



000
FTUS43 KICT 310500
TAFCNU
TAF
KCNU 310520Z 3106/0106 17005KT P6SM SKC
     FM311100 16005KT 5SM BR FEW250
     FM311400 20014KT P6SM SCT250
     FM311800 19017G25KT P6SM SCT150
     FM010100 17016G23KT P6SM BKN200=



000
FTUS43 KICT 310500
TAFSLN
TAF
KSLN 310520Z 3106/0106 16009KT P6SM SCT200
     FM311000 17009KT P6SM VCTS SCT080CB BKN120
     FM311600 18024G33KT P6SM SCT100 BKN250
     FM010200 17013KT P6SM VCTS SCT070CB BKN100=



000
FTUS43 KICT 302300
TAFRSL
TAF
KRSL 302339Z 3100/3124 16014KT P6SM SKC
     FM310100 17011KT P6SM SKC
     FM310900 18012KT P6SM VCTS SCT080CB BKN120
     FM311500 19022G31KT P6SM FEW090 SCT250=



000
FTUS43 KICT 302300
TAFICT
TAF
KICT 302339Z 3100/3124 16007KT P6SM SKC
     FM311100 17009KT P6SM SCT100
     FM311600 18021G31KT P6SM SCT150=



000
FTUS43 KICT 302300
TAFCNU
TAF
KCNU 302339Z 3100/3124 VRB04KT P6SM SKC
     FM311100 16005KT 4SM BR SCT250
     FM311500 20014KT P6SM SCT250
     FM311800 20017G25KT P6SM SCT150=



000
FTUS43 KICT 302300
TAFHUT
TAF
KHUT 302339Z 3100/3124 16008KT P6SM SKC
     FM311100 17010KT P6SM SCT100
     FM311600 18021G31KT P6SM SCT150=



000
FTUS43 KICT 302300
TAFSLN
TAF
KSLN 302339Z 3100/3124 16009KT P6SM SKC
     FM311000 17009KT P6SM SCT100
     FM311600 18021G31KT P6SM SCT100 BKN250=



000
FTUS43 KICT 302200 AAA
TAFRSL
TAF AMD
KRSL 302209Z 3022/3118 16014G23KT P6SM SKC
     FM310100 17011KT P6SM SKC
     FM311100 19012KT P6SM VCTS SCT080CB BKN200=



000
FTUS43 KICT 301700
TAFICT
TAF
KICT 301727Z 3018/3118 06006KT P6SM SCT250
     FM302200 15010KT P6SM SCT100
     FM311500 18015G22KT P6SM SCT100 BKN250=



000
FTUS43 KICT 301700
TAFSLN
TAF
KSLN 301727Z 3018/3118 05003KT P6SM SCT250
     FM302300 15007KT P6SM SCT100
     FM311500 18016G22KT P6SM SCT100 BKN250=



000
FTUS43 KICT 301700
TAFHUT
TAF
KHUT 301727Z 3018/3118 07005KT P6SM SKC
     FM302200 16008KT P6SM SCT100
     FM311500 18014G22KT P6SM SCT100 BKN250=



000
FTUS43 KICT 301700
TAFCNU
TAF
KCNU 301727Z 3018/3118 VRB05KT P6SM SCT040
     FM311100 16005KT 4SM BR SCT250
     FM311500 17012KT P6SM FEW030=



000
FTUS43 KICT 301700
TAFRSL
TAF
KRSL 301727Z 3018/3118 13005KT P6SM SKC
     FM302200 17011KT P6SM SCT250
     FM311100 19012KT P6SM VCTS SCT080CB BKN200=



    US Dept of Commerce
    National Oceanic and Atmospheric Administration
    National Weather Service
    1325 East West Highway
    Silver Spring, MD 20910
    Page Author: NWS Internet Services Team
Disclaimer
Information Quality
Credits
Glossary
Privacy Policy
Freedom of Information Act (FOIA)
About Us
Career Opportunities